Weather at Los Malabares Airport

Public forecast

Using degrees Celsius for public forecast. Weather courtesy of forecast.io.

Closest aviation weather report (METAR) to Los Malabares Airport

Closest report is Camilo Daza International Airport, 19.0 nm (35.2 km) N.

2024/05/27 00:00 (retrieved 49 minutes ago)

SKCC 270000Z 23004KT 9999 SCT017TCU BKN050 29/23 Q1012 RMK TCU/NW

Closest aviation forecast (TAF) to Los Malabares Airport

Forecast is more than 12 hours old.

Closest forecast is San Antonio Del Tachira Airport, 13.5 nm (25.0 km) N.

2024/05/26 12:03 (retrieved 13 hours ago)

TAF TAF SVSA 261000Z 2612/2712 05007KT 9999 BKN020 TX30/2618Z TN16/2708Z TEMPO 2614/2618 15005KT 8000 RA OVC020